Time;durP1;ratioP1;P1;durP2;ratioP2;P2;SDS_P1;SDS_P2;PMS_P1;PMS_P2;Temp;Humidity;BMP_temperature;BMP_pressure;BME280_temperature;BME280_humidity;BME280_pressure;Samples;Min_cycle;Max_cycle;Signal;HPM_P1;HPM_P2
2022/08/21 00:01:20;;;;;;;5.28;2.15;;;;;;;18.13;89.15;100176.84;5049621;28;20048;-73
2022/08/21 00:03:46;;;;;;;5.13;1.90;;;;;;;18.17;88.90;100173.00;5050806;28;20154;-74
2022/08/21 00:06:12;;;;;;;6.10;2.10;;;;;;;18.20;88.54;100167.41;5049270;28;20123;-75
2022/08/21 00:08:37;;;;;;;4.47;2.00;;;;;;;18.19;88.82;100154.06;5050763;28;20171;-74
2022/08/21 00:11:04;;;;;;;8.80;2.13;;;;;;;18.20;88.52;100162.03;5049334;28;20021;-74
2022/08/21 00:13:29;;;;;;;4.22;1.88;;;;;;;18.27;87.75;100158.00;5050334;28;20583;-74
2022/08/21 00:15:55;;;;;;;5.47;1.85;;;;;;;18.36;87.76;100167.34;5051502;28;20073;-73
2022/08/21 00:18:20;;;;;;;3.58;1.92;;;;;;;18.32;87.72;100155.91;5062867;28;20580;-74
2022/08/21 00:20:47;;;;;;;3.90;1.80;;;;;;;18.39;87.46;100161.81;5060649;28;20044;-74
2022/08/21 00:23:13;;;;;;;4.18;1.98;;;;;;;18.40;87.20;100165.38;5068317;28;20021;-73
2022/08/21 00:25:39;;;;;;;3.58;1.58;;;;;;;18.29;87.73;100149.84;5069912;28;20086;-74
2022/08/21 00:28:06;;;;;;;4.05;1.85;;;;;;;18.28;88.46;100159.75;5070574;28;20016;-74
2022/08/21 00:30:32;;;;;;;3.60;1.70;;;;;;;18.24;88.37;100160.03;5074722;28;20035;-74
2022/08/21 00:32:59;;;;;;;3.92;1.90;;;;;;;18.11;88.79;100145.56;5073056;28;20530;-74
2022/08/21 00:35:30;;;;;;;5.65;2.00;;;;;;;18.15;88.68;100158.75;5074050;28;20391;-74
2022/08/21 00:37:56;;;;;;;4.35;1.90;;;;;;;18.12;88.95;100158.94;5074319;28;20013;-73
2022/08/21 00:40:29;;;;;;;3.97;1.98;;;;;;;18.14;88.74;100157.03;5072838;28;20030;-74
2022/08/21 00:42:55;;;;;;;5.45;2.13;;;;;;;18.00;89.14;100142.69;5074402;28;20032;-74
2022/08/21 00:45:24;;;;;;;4.45;2.25;;;;;;;17.94;89.37;100143.91;5075279;28;20029;-75
2022/08/21 00:47:51;;;;;;;3.63;2.00;;;;;;;17.97;89.53;100151.78;5090665;28;20036;-75
2022/08/21 00:50:17;;;;;;;6.03;2.25;;;;;;;17.91;89.52;100148.59;5054279;28;20032;-75
2022/08/21 00:52:43;;;;;;;3.03;1.80;;;;;;;17.89;89.97;100156.78;5054306;28;20017;-74
2022/08/21 00:55:11;;;;;;;4.25;2.05;;;;;;;17.79;90.38;100152.91;5054320;28;20104;-75
2022/08/21 00:57:50;;;;;;;3.30;1.70;;;;;;;17.72;90.73;100159.63;5053950;28;20480;-75
2022/08/21 01:00:21;;;;;;;3.05;1.80;;;;;;;17.61;91.35;100156.69;5053218;28;20380;-74
2022/08/21 01:02:46;;;;;;;4.20;1.83;;;;;;;17.58;91.30;100145.22;5053138;28;20039;-74
2022/08/21 01:05:12;;;;;;;2.83;1.95;;;;;;;17.60;91.44;100146.91;5054103;28;20021;-74
2022/08/21 01:07:38;;;;;;;6.75;2.08;;;;;;;17.55;91.67;100157.06;5051409;28;20044;-74
2022/08/21 01:10:05;;;;;;;3.45;1.77;;;;;;;17.50;92.00;100156.47;5051426;28;20039;-74
2022/08/21 01:12:31;;;;;;;3.78;1.95;;;;;;;17.50;92.39;100158.28;5052972;28;20025;-74
2022/08/21 01:14:57;;;;;;;3.65;1.90;;;;;;;17.43;92.68;100146.97;5053270;28;20039;-74
2022/08/21 01:17:23;;;;;;;4.32;2.05;;;;;;;17.38;92.72;100143.69;5054051;28;20017;-74
2022/08/21 01:19:48;;;;;;;6.65;1.98;;;;;;;17.36;93.17;100151.00;5071124;28;20030;-75
2022/08/21 01:22:14;;;;;;;4.25;2.17;;;;;;;17.37;93.18;100147.34;5073854;28;20094;-74
2022/08/21 01:24:39;;;;;;;3.13;1.85;;;;;;;17.39;93.07;100147.25;5073630;28;20417;-74
2022/08/21 01:27:05;;;;;;;4.97;2.15;;;;;;;17.28;93.32;100145.16;5073539;28;20024;-75
2022/08/21 01:29:40;;;;;;;4.15;1.90;;;;;;;17.31;93.54;100147.72;5073421;28;20032;-75
2022/08/21 01:32:09;;;;;;;6.10;2.38;;;;;;;17.29;93.58;100148.75;5072448;28;20043;-75
2022/08/21 01:34:37;;;;;;;3.92;2.13;;;;;;;17.36;93.70;100148.31;5073558;28;20090;-75
2022/08/21 01:37:03;;;;;;;8.07;2.65;;;;;;;17.39;93.59;100148.13;5072249;28;20024;-75
2022/08/21 01:39:29;;;;;;;4.25;2.20;;;;;;;17.38;92.92;100135.63;5072944;28;20028;-74
2022/08/21 01:41:54;;;;;;;5.15;2.28;;;;;;;17.30;93.38;100120.91;5073248;28;20029;-74
2022/08/21 01:44:21;;;;;;;5.47;2.20;;;;;;;17.31;93.21;100126.19;5073259;28;20029;-74
2022/08/21 01:46:47;;;;;;;8.52;2.40;;;;;;;17.38;93.21;100143.69;5087540;28;20135;-74
2022/08/21 01:49:13;;;;;;;4.32;2.00;;;;;;;17.45;92.77;100142.41;5067444;28;20060;-74
2022/08/21 01:51:39;;;;;;;3.92;2.13;;;;;;;17.49;92.26;100146.66;5053397;28;20072;-74
2022/08/21 01:54:04;;;;;;;6.95;2.38;;;;;;;17.47;91.94;100145.88;5072326;28;20037;-74
2022/08/21 01:56:35;;;;;;;5.35;1.88;;;;;;;17.45;91.75;100128.97;5072240;28;20507;-75
2022/08/21 01:59:01;;;;;;;4.28;2.03;;;;;;;17.41;91.24;100127.41;5072557;28;20021;-75
2022/08/21 02:01:27;;;;;;;5.45;2.28;;;;;;;17.40;91.65;100136.41;5068446;28;20029;-76
2022/08/21 02:03:52;;;;;;;4.20;2.58;;;;;;;17.37;91.64;100125.84;5053041;28;20032;-75
2022/08/21 02:06:18;;;;;;;3.72;2.03;;;;;;;17.35;91.68;100121.50;5052768;28;20028;-76
2022/08/21 02:08:43;;;;;;;5.32;2.33;;;;;;;17.28;91.76;100115.59;5052602;28;20082;-75
2022/08/21 02:11:09;;;;;;;4.07;2.42;;;;;;;17.35;91.47;100133.13;5052273;28;20114;-75
2022/08/21 02:13:34;;;;;;;3.72;1.83;;;;;;;17.22;91.84;100115.97;5052542;28;20570;-76
2022/08/21 02:16:00;;;;;;;3.42;2.17;;;;;;;17.34;92.31;100133.22;5051643;28;20488;-75
2022/08/21 02:18:25;;;;;;;4.47;2.17;;;;;;;17.32;91.84;100127.03;5060640;28;20363;-75
2022/08/21 02:20:51;;;;;;;4.90;2.25;;;;;;;17.31;91.86;100134.25;5071788;28;20070;-76
2022/08/21 02:23:16;;;;;;;4.57;2.35;;;;;;;17.15;92.09;100108.34;5072488;28;20035;-75
2022/08/21 02:25:42;;;;;;;4.00;2.00;;;;;;;17.25;92.13;100123.84;5072457;28;20479;-75
2022/08/21 02:28:14;;;;;;;4.35;2.17;;;;;;;17.24;92.07;100119.44;5071169;28;20020;-75
2022/08/21 02:30:43;;;;;;;5.97;2.35;;;;;;;17.10;92.44;100108.59;5071148;28;20032;-75
2022/08/21 02:33:11;;;;;;;6.05;2.65;;;;;;;17.10;92.48;100098.72;5072401;28;20032;-75
2022/08/21 02:35:37;;;;;;;3.50;2.20;;;;;;;17.20;92.26;100123.25;5072406;28;20099;-75
2022/08/21 02:38:06;;;;;;;4.10;2.22;;;;;;;17.18;91.94;100118.94;5072207;28;20059;-75
2022/08/21 02:40:37;;;;;;;4.78;2.28;;;;;;;17.07;92.38;100106.97;5070914;28;20472;-75
2022/08/21 02:43:04;;;;;;;4.20;2.05;;;;;;;17.13;92.07;100116.50;5071022;28;20039;-75
2022/08/21 02:45:31;;;;;;;6.13;2.45;;;;;;;17.08;92.13;100113.22;5074405;28;20031;-75
2022/08/21 02:47:59;;;;;;;8.88;2.35;;;;;;;16.96;92.64;100101.34;5086991;28;20043;-75
2022/08/21 02:50:31;;;;;;;4.57;2.40;;;;;;;17.01;93.07;100122.59;5050438;28;20033;-75
2022/08/21 02:52:57;;;;;;;3.75;2.13;;;;;;;16.99;93.32;100119.97;5051597;28;20036;-75
2022/08/21 02:55:26;;;;;;;3.25;1.83;;;;;;;16.95;93.19;100117.56;5053644;28;20028;-75
2022/08/21 02:57:53;;;;;;;4.88;2.15;;;;;;;16.87;92.79;100115.28;5052207;28;20111;-74
2022/08/21 03:00:20;;;;;;;3.72;2.20;;;;;;;16.77;93.76;100115.91;5051931;28;20021;-74
2022/08/21 03:02:46;;;;;;;4.32;2.20;;;;;;;16.69;93.03;100100.22;5051996;28;20484;-73
2022/08/21 03:05:12;;;;;;;4.03;2.28;;;;;;;16.74;94.19;100121.44;5051371;28;20040;-74
2022/08/21 03:07:39;;;;;;;5.97;2.65;;;;;;;16.69;93.98;100112.78;5050822;28;20053;-74
2022/08/21 03:10:06;;;;;;;5.47;2.45;;;;;;;16.71;93.82;100118.94;5051030;28;20107;-75
2022/08/21 03:12:31;;;;;;;5.45;2.42;;;;;;;16.68;93.99;100124.47;5050091;28;20025;-73
2022/08/21 03:14:57;;;;;;;5.72;2.15;;;;;;;16.68;94.52;100119.97;5049976;28;20387;-74
2022/08/21 03:17:24;;;;;;;7.35;3.03;;;;;;;16.62;93.60;100108.72;5049645;28;20056;-74
2022/08/21 03:19:49;;;;;;;6.55;2.40;;;;;;;16.73;94.59;100119.72;5065890;28;20437;-75
2022/08/21 03:22:15;;;;;;;8.27;2.53;;;;;;;16.70;94.53;100119.91;5070481;28;20107;-75
2022/08/21 03:24:40;;;;;;;5.97;2.65;;;;;;;16.63;93.95;100105.94;5070514;28;20059;-75
2022/08/21 03:27:05;;;;;;;8.32;2.42;;;;;;;16.62;94.07;100106.03;5070543;28;20021;-75
2022/08/21 03:29:31;;;;;;;4.70;3.03;;;;;;;16.56;94.27;100104.53;5070294;28;20035;-75
2022/08/21 03:31:56;;;;;;;4.25;2.08;;;;;;;16.65;93.83;100119.28;5068888;28;20066;-75
2022/08/21 03:34:22;;;;;;;4.63;2.72;;;;;;;16.52;94.17;100105.66;5070163;28;20456;-75
2022/08/21 03:36:48;;;;;;;5.07;2.70;;;;;;;16.50;94.56;100122.81;5070343;28;20032;-74
2022/08/21 03:39:15;;;;;;;4.90;2.30;;;;;;;16.45;94.67;100122.16;5070338;28;20020;-74
2022/08/21 03:41:41;;;;;;;5.50;2.15;;;;;;;16.38;95.00;100123.44;5070238;28;20024;-75
2022/08/21 03:44:07;;;;;;;4.63;2.10;;;;;;;16.25;95.29;100109.81;5070617;28;20530;-75
2022/08/21 03:46:32;;;;;;;5.38;2.20;;;;;;;16.33;95.70;100117.44;5083412;28;20063;-75
2022/08/21 03:48:58;;;;;;;4.85;2.63;;;;;;;16.29;96.03;100122.09;5070078;28;20491;-74
2022/08/21 03:51:23;;;;;;;4.38;2.50;;;;;;;16.28;95.72;100131.13;5049637;28;20025;-74
2022/08/21 03:53:48;;;;;;;7.10;2.75;;;;;;;16.30;95.11;100133.72;5051070;28;20021;-74
2022/08/21 03:56:16;;;;;;;4.43;2.38;;;;;;;16.19;95.30;100122.72;5051117;28;20083;-75
2022/08/21 03:58:41;;;;;;;9.38;2.50;;;;;;;16.20;95.94;100133.38;5051050;28;20099;-74
2022/08/21 04:01:07;;;;;;;3.92;2.08;;;;;;;15.98;95.95;100121.19;5050912;28;20052;-75
2022/08/21 04:03:36;;;;;;;3.97;2.42;;;;;;;15.99;96.41;100139.88;5050724;28;20044;-75
2022/08/21 04:06:02;;;;;;;5.40;2.45;;;;;;;15.86;96.22;100129.84;5053217;28;20055;-75
2022/08/21 04:08:28;;;;;;;6.47;2.40;;;;;;;15.82;96.90;100143.44;5050791;28;20029;-74
2022/08/21 04:10:56;;;;;;;5.43;2.83;;;;;;;15.74;97.56;100137.59;5052413;28;20047;-76
2022/08/21 04:13:22;;;;;;;4.88;2.53;;;;;;;15.72;98.09;100141.28;5050921;28;20083;-76
2022/08/21 04:15:48;;;;;;;3.88;2.10;;;;;;;15.60;97.65;100132.06;5049684;28;20064;-76
2022/08/21 04:18:13;;;;;;;6.43;2.45;;;;;;;15.62;98.19;100148.94;5058418;28;20055;-76
2022/08/21 04:20:42;;;;;;;7.07;2.80;;;;;;;15.56;97.67;100146.59;5050929;28;20430;-76
2022/08/21 04:23:07;;;;;;;8.40;2.58;;;;;;;15.59;98.22;100145.56;5061799;28;20179;-76
2022/08/21 04:25:33;;;;;;;4.43;2.33;;;;;;;15.59;98.32;100140.19;5070841;28;20059;-76
2022/08/21 04:27:58;;;;;;;5.97;2.35;;;;;;;15.67;98.25;100138.84;5070341;28;20078;-76
2022/08/21 04:30:25;;;;;;;4.43;2.17;;;;;;;15.75;97.49;100152.72;5070209;28;20032;-76
2022/08/21 04:32:51;;;;;;;4.60;2.28;;;;;;;15.61;97.51;100143.66;5068414;28;20028;-77
2022/08/21 04:35:19;;;;;;;6.53;2.53;;;;;;;15.65;97.73;100156.84;5070112;28;20089;-76
2022/08/21 04:37:45;;;;;;;3.28;2.03;;;;;;;15.60;98.93;100150.84;5069904;28;20024;-76
2022/08/21 04:40:12;;;;;;;7.72;3.30;;;;;;;15.61;98.37;100149.91;5069950;28;20074;-76
2022/08/21 04:42:45;;;;;;;5.90;2.97;;;;;;;15.73;98.87;100157.31;5068682;28;20666;-76
2022/08/21 04:45:17;;;;;;;5.70;2.35;;;;;;;15.78;99.02;100160.63;5069074;28;20111;-76
2022/08/21 04:47:43;;;;;;;4.60;2.35;;;;;;;15.83;99.85;100160.41;5070328;28;20400;-76
2022/08/21 04:50:08;;;;;;;5.57;2.38;;;;;;;15.81;99.42;100149.72;5049216;28;20025;-76
2022/08/21 04:52:34;;;;;;;6.68;2.75;;;;;;;15.90;98.71;100151.06;5049314;28;20075;-77
2022/08/21 04:55:00;;;;;;;5.72;2.25;;;;;;;15.89;98.66;100153.84;5050607;28;20021;-77
2022/08/21 04:57:26;;;;;;;4.70;3.05;;;;;;;16.00;99.65;100168.44;5050664;28;20120;-77
2022/08/21 04:59:52;;;;;;;11.25;2.97;;;;;;;16.02;99.50;100160.28;5051007;28;20103;-77
2022/08/21 05:02:17;;;;;;;5.03;2.50;;;;;;;16.13;98.98;100176.72;5050871;28;20521;-77
2022/08/21 05:04:52;;;;;;;11.93;2.80;;;;;;;16.20;99.02;100170.06;5051946;28;20397;-77
2022/08/21 05:07:27;;;;;;;5.03;2.53;;;;;;;16.24;99.52;100171.66;5069088;28;20045;-77
2022/08/21 05:09:53;;;;;;;4.72;2.25;;;;;;;16.34;99.74;100159.47;5069421;28;20027;-77
2022/08/21 05:12:19;;;;;;;6.45;2.60;;;;;;;16.44;99.43;100168.78;5070299;28;20047;-76
2022/08/21 05:14:44;;;;;;;6.75;3.33;;;;;;;16.49;99.28;100169.41;5071880;28;20029;-76
2022/08/21 05:17:10;;;;;;;4.15;2.45;;;;;;;16.53;99.76;100162.91;5074578;28;20029;-77
2022/08/21 05:19:36;;;;;;;5.05;2.70;;;;;;;16.61;98.53;100163.38;5074163;28;20387;-77
2022/08/21 05:22:01;;;;;;;4.15;2.28;;;;;;;16.58;98.34;100155.47;5072554;28;20433;-77
2022/08/21 05:24:27;;;;;;;5.88;2.63;;;;;;;16.72;97.81;100169.03;5074090;28;20425;-78
2022/08/21 05:26:53;;;;;;;7.72;3.20;;;;;;;16.91;97.24;100180.47;5074145;28;20032;-77
2022/08/21 05:29:19;;;;;;;4.25;2.53;;;;;;;16.92;97.24;100160.72;5074193;28;20035;-77
2022/08/21 05:31:44;;;;;;;8.27;2.58;;;;;;;17.10;96.38;100176.69;5054579;28;20037;-76
2022/08/21 05:34:10;;;;;;;6.57;2.78;;;;;;;17.21;96.43;100184.13;5064466;28;20033;-77
2022/08/21 05:36:36;;;;;;;17.55;3.22;;;;;;;17.25;96.37;100163.31;5059081;28;20024;-77
2022/08/21 05:39:02;;;;;;;13.40;3.15;;;;;;;17.33;96.45;100155.69;5052252;28;20032;-77
2022/08/21 05:41:28;;;;;;;6.60;2.30;;;;;;;17.49;96.38;100167.31;5053820;28;20494;-79
2022/08/21 05:43:53;;;;;;;4.65;2.55;;;;;;;17.63;96.20;100165.53;5053415;28;20024;-66
2022/08/21 05:46:18;;;;;;;5.78;2.17;;;;;;;17.76;96.00;100179.16;5068997;28;20044;-66
2022/08/21 05:48:44;;;;;;;6.65;2.60;;;;;;;17.86;95.38;100174.94;5071785;28;20028;-66
2022/08/21 05:51:12;;;;;;;6.97;2.70;;;;;;;17.95;95.13;100177.09;5073327;28;20024;-66
2022/08/21 05:53:39;;;;;;;10.30;2.75;;;;;;;18.02;94.03;100173.06;5072760;28;20039;-66
2022/08/21 05:56:04;;;;;;;6.68;3.28;;;;;;;18.12;93.06;100168.88;5073045;28;20095;-67
2022/08/21 05:58:32;;;;;;;7.57;2.45;;;;;;;18.23;92.19;100169.94;5073124;28;20550;-67
2022/08/21 06:00:58;;;;;;;3.63;2.03;;;;;;;18.35;91.08;100177.25;5059962;28;20095;-66
2022/08/21 06:03:28;;;;;;;6.82;2.80;;;;;;;18.49;89.80;100179.13;5067017;28;20391;-65
2022/08/21 06:05:55;;;;;;;4.47;2.53;;;;;;;18.63;88.28;100180.97;5073045;28;20036;-66
2022/08/21 06:08:21;;;;;;;8.90;2.35;;;;;;;18.74;86.97;100178.44;5069260;28;20068;-66
2022/08/21 06:10:49;;;;;;;5.30;2.67;;;;;;;18.83;86.15;100177.88;5072647;28;20037;-66
2022/08/21 06:13:16;;;;;;;7.80;2.58;;;;;;;18.91;85.49;100181.78;5072269;28;20038;-66
2022/08/21 06:15:41;;;;;;;5.18;2.63;;;;;;;19.04;84.54;100180.06;5070154;28;20105;-66
2022/08/21 06:18:07;;;;;;;5.82;2.20;;;;;;;19.18;84.09;100180.03;5072644;28;20408;-66
2022/08/21 06:20:33;;;;;;;10.35;2.70;;;;;;;19.31;82.91;100182.81;5063301;28;20480;-66
2022/08/21 06:22:58;;;;;;;5.30;2.38;;;;;;;19.50;82.40;100180.66;5058538;28;20024;-66
2022/08/21 06:25:24;;;;;;;4.25;1.95;;;;;;;19.68;81.19;100184.81;5072493;28;20153;-66
2022/08/21 06:27:50;;;;;;;7.20;2.33;;;;;;;19.83;80.50;100189.19;5071822;28;20062;-66
2022/08/21 06:30:15;;;;;;;4.22;2.40;;;;;;;20.06;79.71;100184.91;5072524;28;20032;-66
2022/08/21 06:32:41;;;;;;;9.25;2.28;;;;;;;20.17;79.77;100183.25;5071973;28;20029;-66
2022/08/21 06:35:07;;;;;;;7.28;2.25;;;;;;;20.32;78.95;100193.00;5071485;28;20025;-66
2022/08/21 06:37:32;;;;;;;5.32;2.05;;;;;;;20.35;77.02;100189.19;5071215;28;20460;-66
2022/08/21 06:39:58;;;;;;;3.95;1.90;;;;;;;20.54;76.89;100182.38;5071721;28;20639;-67
2022/08/21 06:42:24;;;;;;;4.97;2.10;;;;;;;20.75;75.06;100180.00;5070901;28;20480;-67
2022/08/21 06:44:49;;;;;;;4.90;1.95;;;;;;;20.98;73.80;100187.38;5072204;28;20028;-67
2022/08/21 06:47:15;;;;;;;8.95;2.35;;;;;;;21.13;73.38;100169.16;5090353;28;20024;-67
2022/08/21 06:49:40;;;;;;;5.40;1.75;;;;;;;21.53;72.21;100185.00;5059301;28;20028;-67
2022/08/21 06:52:13;;;;;;;4.75;2.13;;;;;;;21.68;71.21;100172.19;5052010;28;20122;-67
2022/08/21 06:54:39;;;;;;;2.97;1.80;;;;;;;21.90;69.91;100181.31;5051489;28;20032;-67
2022/08/21 06:57:04;;;;;;;4.05;1.80;;;;;;;22.05;69.39;100190.97;5051116;28;20465;-67
2022/08/21 06:59:31;;;;;;;5.35;2.15;;;;;;;22.08;nan;100162.75;5050791;28;20035;-67
2022/08/21 07:01:57;;;;;;;3.95;1.80;;;;;;;22.52;68.82;100192.69;5050794;28;20122;-67
2022/08/21 07:04:23;;;;;;;6.20;1.75;;;;;;;22.76;67.01;100188.06;5049363;28;20646;-67
2022/08/21 07:06:48;;;;;;;3.22;1.58;;;;;;;23.10;66.56;100188.91;5050713;28;20045;-67
2022/08/21 07:09:14;;;;;;;15.23;2.33;;;;;;;23.51;66.04;100185.56;5051224;28;20158;-67
2022/08/21 07:11:40;;;;;;;2.67;1.60;;;;;;;23.86;61.60;100188.88;5054336;28;20442;-67
2022/08/21 07:14:06;;;;;;;5.03;1.60;;;;;;;24.22;61.91;100185.78;5051727;28;20408;-67
2022/08/21 07:16:31;;;;;;;3.65;1.70;;;;;;;24.60;59.56;100181.47;5051685;28;20028;-67
2022/08/21 07:18:57;;;;;;;3.75;1.85;;;;;;;24.94;57.77;100182.13;5061776;28;20490;-67
2022/08/21 07:21:22;;;;;;;6.65;1.90;;;;;;;25.31;57.03;100180.53;5071579;28;20021;-67
2022/08/21 07:23:50;;;;;;;2.70;1.42;;;;;;;25.71;55.92;100177.78;5071414;28;20051;-67
2022/08/21 07:26:20;;;;;;;5.97;1.70;;;;;;;25.83;53.76;100169.31;5070357;28;20042;-67
2022/08/21 07:28:46;;;;;;;7.32;1.85;;;;;;;26.19;53.66;100175.97;5071340;28;20043;-67
2022/08/21 07:31:14;;;;;;;2.60;1.27;;;;;;;26.13;53.45;100172.94;5071296;28;20047;-67
2022/08/21 07:33:41;;;;;;;3.78;1.52;;;;;;;26.30;53.35;100167.63;5057624;28;20103;-67
2022/08/21 07:36:06;;;;;;;5.05;1.85;;;;;;;26.52;52.67;100169.16;5051403;28;20033;-67
2022/08/21 07:38:32;;;;;;;3.28;1.45;;;;;;;26.72;50.92;100162.69;5049380;28;20032;-67
2022/08/21 07:41:00;;;;;;;3.72;1.40;;;;;;;26.79;49.63;100169.22;5051229;28;20032;-67
2022/08/21 07:43:25;;;;;;;4.82;1.60;;;;;;;26.88;49.81;100162.91;5051124;28;20498;-67
2022/08/21 07:45:51;;;;;;;5.53;1.50;;;;;;;27.02;49.07;100157.78;5059537;28;20055;-67
2022/08/21 07:48:16;;;;;;;4.95;1.50;;;;;;;27.06;49.47;100163.81;5066206;28;20013;-67
2022/08/21 07:50:43;;;;;;;3.25;1.67;;;;;;;27.43;49.22;100169.28;5050747;28;20024;-67
2022/08/21 07:53:08;;;;;;;5.82;1.60;;;;;;;27.74;47.91;100168.75;5050043;28;20047;-67
2022/08/21 07:55:34;;;;;;;3.58;1.45;;;;;;;27.96;46.58;100173.81;5050058;28;20431;-67
2022/08/21 07:58:00;;;;;;;4.63;1.80;;;;;;;28.15;47.29;100167.31;5049886;28;20031;-67
2022/08/21 08:00:27;;;;;;;7.00;1.70;;;;;;;28.23;45.56;100162.78;5050298;28;20021;-67
2022/08/21 08:02:54;;;;;;;3.72;1.40;;;;;;;28.53;45.19;100166.97;5051231;28;20100;-67
2022/08/21 08:05:23;;;;;;;5.03;1.40;;;;;;;28.33;43.99;100165.41;5050380;28;20027;-67
2022/08/21 08:07:49;;;;;;;5.43;1.80;;;;;;;28.88;44.47;100166.84;5049497;28;20524;-68
2022/08/21 08:10:15;;;;;;;2.78;1.38;;;;;;;29.10;44.09;100165.44;5052307;28;20036;-67
2022/08/21 08:12:41;;;;;;;2.80;1.50;;;;;;;29.27;43.44;100165.38;5049552;28;20025;-67
2022/08/21 08:15:13;;;;;;;3.58;1.38;;;;;;;29.38;43.52;100158.72;5049637;28;20120;-67
2022/08/21 08:17:39;;;;;;;7.77;1.50;;;;;;;29.35;43.64;100159.91;5049886;28;20021;-67
2022/08/21 08:20:06;;;;;;;8.05;1.70;;;;;;;29.49;42.54;100155.66;5069786;28;20270;-68
2022/08/21 08:22:35;;;;;;;5.35;1.77;;;;;;;29.33;43.45;100163.84;5070579;28;20464;-67
2022/08/21 08:25:01;;;;;;;6.18;2.10;;;;;;;28.90;43.81;100163.94;5063415;28;20082;-67
2022/08/21 08:27:27;;;;;;;3.00;1.30;;;;;;;28.48;44.82;100157.47;5062999;28;20436;-67
2022/08/21 08:29:52;;;;;;;9.07;1.67;;;;;;;28.19;45.77;100158.63;5070770;28;20048;-67
2022/08/21 08:32:18;;;;;;;5.35;1.30;;;;;;;27.96;46.22;100157.41;5069481;28;20109;-67
2022/08/21 08:34:44;;;;;;;3.65;1.60;;;;;;;27.36;46.97;100149.03;5070660;28;20029;-67
2022/08/21 08:37:10;;;;;;;5.43;1.75;;;;;;;27.47;47.63;100146.06;5070618;28;20020;-67
2022/08/21 08:39:36;;;;;;;7.55;1.65;;;;;;;27.93;46.44;100144.03;5070774;28;20040;-67
2022/08/21 08:42:13;;;;;;;4.85;1.77;;;;;;;28.68;45.07;100138.00;5070507;28;20020;-67
2022/08/21 08:44:44;;;;;;;5.97;1.65;;;;;;;29.08;44.03;100131.88;5070073;28;20020;-67
2022/08/21 08:47:13;;;;;;;4.93;1.80;;;;;;;29.71;42.15;100135.00;5087347;28;20079;-67
2022/08/21 08:50:06;;;;;;;2.80;1.63;;;;;;;30.05;39.89;100136.59;5058929;28;20040;-67
2022/08/21 08:52:42;;;;;;;4.65;1.63;;;;;;;30.16;40.31;100136.28;5052573;28;20056;-67
2022/08/21 08:55:08;;;;;;;5.10;1.65;;;;;;;30.38;39.87;100132.84;5053682;28;20381;-67
2022/08/21 08:57:35;;;;;;;5.40;1.77;;;;;;;30.84;39.55;100134.84;5053686;28;20120;-67
2022/08/21 09:00:06;;;;;;;5.05;1.58;;;;;;;31.23;38.88;100123.03;5054098;28;20060;-67
2022/08/21 09:02:33;;;;;;;4.07;1.77;;;;;;;31.58;37.90;100125.28;5054376;28;20387;-67
2022/08/21 09:04:59;;;;;;;3.80;1.65;;;;;;;31.55;38.38;100112.72;5053896;28;20430;-68
2022/08/21 09:07:33;;;;;;;4.97;2.00;;;;;;;31.66;38.67;100122.47;5054048;28;20049;-68
2022/08/21 09:10:20;;;;;;;7.10;1.60;;;;;;;31.71;38.56;100118.13;5056635;28;20025;-68
2022/08/21 09:13:03;;;;;;;4.30;1.50;;;;;;;31.69;38.20;100111.97;5054124;28;20391;-68
2022/08/21 09:15:53;;;;;;;2.35;1.20;;;;;;;31.44;38.41;100110.41;5053874;28;20079;-69
2022/08/21 09:18:34;;;;;;;7.22;1.92;;;;;;;31.88;38.93;100097.75;5057748;28;20139;-70
2022/08/21 09:21:15;;;;;;;3.63;1.30;;;;;;;32.29;37.69;100089.97;5072860;28;20035;-68
2022/08/21 09:23:54;;;;;;;3.67;1.70;;;;;;;32.67;37.14;100088.91;5072533;28;20020;-69
2022/08/21 09:26:25;;;;;;;4.78;1.27;;;;;;;32.79;37.01;100081.91;5072826;28;20028;-71
2022/08/21 09:29:03;;;;;;;3.33;1.27;;;;;;;32.43;36.81;100091.94;5072733;28;20029;-70
2022/08/21 09:31:34;;;;;;;3.45;1.55;;;;;;;32.13;37.17;100089.31;5073678;28;20127;-70
2022/08/21 09:34:09;;;;;;;4.85;1.50;;;;;;;32.56;37.00;100085.78;5073179;28;20031;-71
2022/08/21 09:36:44;;;;;;;8.20;1.75;;;;;;;32.86;36.02;100087.50;5072955;28;20021;-71
2022/08/21 09:39:13;;;;;;;4.22;1.45;;;;;;;32.67;35.92;100086.16;5052668;28;20104;-69
2022/08/21 09:41:39;;;;;;;3.83;1.60;;;;;;;32.28;36.68;100088.28;5052568;28;20052;-68
2022/08/21 09:44:07;;;;;;;6.43;1.70;;;;;;;31.85;37.24;100087.09;5052863;28;20029;-68
2022/08/21 09:46:33;;;;;;;7.97;2.13;;;;;;;31.85;37.93;100075.19;5078171;28;20040;-68
2022/08/21 09:49:01;;;;;;;4.60;1.48;;;;;;;32.66;35.94;100087.22;5070857;28;20072;-68
2022/08/21 09:51:36;;;;;;;4.22;1.80;;;;;;;33.36;35.17;100080.13;5052702;28;20083;-70
2022/08/21 09:54:05;;;;;;;7.53;2.03;;;;;;;33.91;34.71;100084.16;5051042;28;20028;-70
2022/08/21 09:59:34;;;;;;;4.18;1.30;;;;;;;33.97;34.44;100083.41;5052454;28;20133;-70
2022/08/21 10:02:14;;;;;;;3.72;1.38;;;;;;;33.78;34.29;100084.03;5051740;28;20033;-71
2022/08/21 10:04:45;;;;;;;5.28;1.80;;;;;;;33.76;34.20;100075.94;5053534;28;20029;-71
2022/08/21 10:07:13;;;;;;;5.00;1.65;;;;;;;34.02;33.75;100078.16;5070379;28;20059;-71
2022/08/21 10:09:41;;;;;;;3.78;1.50;;;;;;;33.95;33.76;100074.47;5071905;28;20036;-71
2022/08/21 10:12:10;;;;;;;7.03;1.70;;;;;;;33.75;34.32;100063.22;5071617;28;20028;-71
2022/08/21 10:14:55;;;;;;;4.35;1.58;;;;;;;34.32;33.03;100082.44;5071642;28;20617;-71
2022/08/21 10:17:37;;;;;;;5.47;2.00;;;;;;;34.86;33.41;100069.66;5063555;28;20150;-71
2022/08/21 10:20:37;;;;;;;6.18;1.65;;;;;;;35.25;32.79;100069.91;5054433;28;20036;-71
2022/08/21 10:23:11;;;;;;;3.35;1.48;;;;;;;35.02;32.68;100061.06;5071061;28;20067;-72
2022/08/21 10:25:55;;;;;;;4.38;1.33;;;;;;;35.11;32.63;100057.06;5068665;28;20515;-72
2022/08/21 10:28:39;;;;;;;5.70;1.65;;;;;;;35.23;31.58;100060.94;5071636;28;20171;-72
2022/08/21 10:31:24;;;;;;;4.07;1.50;;;;;;;35.23;32.15;100049.88;5072183;28;20023;-71
2022/08/21 10:34:23;;;;;;;6.93;1.50;;;;;;;34.71;31.74;100055.13;5063958;28;20472;-73
2022/08/21 10:36:57;;;;;;;8.40;1.40;;;;;;;34.58;32.51;100049.53;5052299;28;20032;-70
2022/08/21 10:39:35;;;;;;;1.90;0.90;;;;;;;34.81;30.94;100049.22;5052285;28;20028;-70
2022/08/21 10:42:11;;;;;;;4.13;1.23;;;;;;;35.05;30.33;100035.75;5052266;28;20032;-71
2022/08/21 10:45:09;;;;;;;4.13;1.00;;;;;;;35.30;30.82;100042.47;5051724;28;20056;-71
2022/08/21 10:47:46;;;;;;;3.85;1.30;;;;;;;35.47;30.62;100046.56;5048348;28;20041;-71
2022/08/21 10:50:44;;;;;;;5.57;1.65;;;;;;;35.20;31.10;100044.75;5051008;28;20460;-71
2022/08/21 10:53:32;;;;;;;1.98;1.02;;;;;;;35.00;30.53;100041.06;5050895;28;20033;-72
2022/08/21 10:56:21;;;;;;;4.38;1.30;;;;;;;35.12;31.15;100035.78;5051036;28;20017;-71
2022/08/21 10:58:55;;;;;;;5.97;1.27;;;;;;;35.59;29.94;100039.38;5051052;28;20048;-71
2022/08/21 11:01:28;;;;;;;3.15;0.80;;;;;;;35.79;29.64;100042.16;5051901;28;20040;-71
2022/08/21 11:04:09;;;;;;;4.63;1.30;;;;;;;35.37;29.05;100037.78;5050551;28;20031;-72
2022/08/21 11:06:39;;;;;;;2.90;0.93;;;;;;;34.98;29.38;100023.81;5051614;28;20056;-71
2022/08/21 11:09:10;;;;;;;4.13;1.70;;;;;;;35.42;31.44;100031.69;5052722;28;20025;-71
2022/08/21 11:11:41;;;;;;;2.80;0.93;;;;;;;35.80;28.96;100019.78;5051355;28;20028;-71
2022/08/21 11:14:39;;;;;;;5.55;0.95;;;;;;;35.61;30.10;100009.56;5051413;28;20104;-71
2022/08/21 11:17:11;;;;;;;3.53;1.23;;;;;;;35.45;29.75;100015.47;5069410;28;20515;-71
2022/08/21 11:19:41;;;;;;;5.90;1.10;;;;;;;35.69;28.29;100017.66;5071491;28;20074;-71
2022/08/21 11:22:10;;;;;;;3.40;1.15;;;;;;;35.59;27.64;100011.69;5066104;28;20029;-70
2022/08/21 11:24:44;;;;;;;2.95;1.15;;;;;;;35.54;28.69;100018.91;5049367;28;20705;-70
2022/08/21 11:27:30;;;;;;;1.73;0.75;;;;;;;35.79;28.38;100007.03;5050580;28;20112;-70
2022/08/21 11:29:58;;;;;;;5.15;1.30;;;;;;;35.94;27.44;99997.69;5050771;28;20087;-71
2022/08/21 11:32:46;;;;;;;3.90;1.08;;;;;;;36.04;28.46;100014.72;5050626;28;20112;-70
2022/08/21 11:35:27;;;;;;;3.53;1.00;;;;;;;35.77;28.98;100017.47;5052704;28;20078;-70